Time;durP1;ratioP1;P1;durP2;ratioP2;P2;SDS_P1;SDS_P2;PMS_P1;PMS_P2;Temp;Humidity;BMP_temperature;BMP_pressure;BME280_temperature;BME280_humidity;BME280_pressure;Samples;Min_cycle;Max_cycle;Signal;HPM_P1;HPM_P2
2022/04/24 00:01:32;;;;;;;6.90;4.88;;;;;;;8.31;78.14;100787.38;5028197;28;20049;-70
2022/04/24 00:03:58;;;;;;;5.88;4.75;;;;;;;8.26;78.21;100775.63;5029029;28;20044;-69
2022/04/24 00:06:23;;;;;;;5.43;4.38;;;;;;;8.22;78.55;100772.44;5028126;28;20120;-69
2022/04/24 00:08:49;;;;;;;7.50;4.68;;;;;;;8.23;78.54;100774.94;5028082;28;20017;-69
2022/04/24 00:11:16;;;;;;;7.18;4.35;;;;;;;8.17;78.71;100775.47;5023682;28;20100;-69
2022/04/24 00:13:42;;;;;;;7.63;4.70;;;;;;;8.13;78.28;100775.88;5026727;28;20022;-70
2022/04/24 00:16:08;;;;;;;7.22;4.65;;;;;;;8.12;78.43;100774.19;5028406;28;20037;-69
2022/04/24 00:18:34;;;;;;;9.02;5.10;;;;;;;8.16;78.25;100768.53;5029885;28;20030;-69
2022/04/24 00:21:01;;;;;;;6.70;5.22;;;;;;;8.17;78.15;100775.47;5024485;28;20096;-69
2022/04/24 00:23:27;;;;;;;8.45;5.03;;;;;;;8.17;78.31;100775.47;5027323;28;20080;-69
2022/04/24 00:25:52;;;;;;;9.82;5.63;;;;;;;8.11;78.23;100775.19;5028577;28;20042;-70
2022/04/24 00:28:17;;;;;;;10.85;5.25;;;;;;;8.00;78.44;100768.25;5015736;28;20467;-69
2022/04/24 00:30:43;;;;;;;7.10;4.47;;;;;;;7.97;78.97;100769.34;5011712;28;20030;-69
2022/04/24 00:33:08;;;;;;;6.30;4.47;;;;;;;7.85;78.92;100749.41;5027184;28;20478;-69
2022/04/24 00:35:33;;;;;;;7.72;4.75;;;;;;;7.81;79.73;100759.34;5026870;28;20441;-69
2022/04/24 00:37:59;;;;;;;8.52;4.75;;;;;;;7.88;80.21;100766.69;5019759;28;20540;-69
2022/04/24 00:40:24;;;;;;;7.25;4.50;;;;;;;7.85;79.82;100759.09;5027646;28;20025;-69
2022/04/24 00:42:50;;;;;;;8.52;5.03;;;;;;;7.80;79.61;100764.75;5027045;28;20507;-68
2022/04/24 00:45:15;;;;;;;7.78;5.10;;;;;;;7.82;79.26;100757.56;5026768;28;20044;-68
2022/04/24 00:47:44;;;;;;;7.97;5.45;;;;;;;7.78;79.48;100756.97;5025403;28;20063;-68
2022/04/24 00:50:10;;;;;;;7.40;5.13;;;;;;;7.82;79.23;100755.75;5028200;28;20043;-68
2022/04/24 00:52:37;;;;;;;9.65;5.00;;;;;;;7.85;79.40;100770.41;5026675;28;20045;-68
2022/04/24 00:55:03;;;;;;;7.32;5.20;;;;;;;7.84;79.34;100768.78;5027402;28;20069;-70
2022/04/24 00:57:29;;;;;;;9.77;5.32;;;;;;;7.81;79.74;100764.59;5029089;28;20049;-70
2022/04/24 00:59:54;;;;;;;8.13;4.95;;;;;;;7.77;80.32;100757.09;5026957;28;20468;-70
2022/04/24 01:02:20;;;;;;;9.60;5.28;;;;;;;7.64;80.02;100738.97;5016752;28;20452;-69
2022/04/24 01:04:45;;;;;;;6.85;5.07;;;;;;;7.79;80.07;100748.13;5026295;28;20033;-69
2022/04/24 01:07:11;;;;;;;8.40;5.00;;;;;;;7.72;79.86;100752.25;5028008;28;20338;-69
2022/04/24 01:09:37;;;;;;;7.15;5.13;;;;;;;7.68;79.67;100731.66;5028433;28;20108;-69
2022/04/24 01:12:04;;;;;;;7.53;5.05;;;;;;;7.75;79.21;100754.63;5021875;28;20116;-69
2022/04/24 01:14:30;;;;;;;7.30;4.95;;;;;;;7.74;79.21;100747.72;5026393;28;20068;-69
2022/04/24 01:16:56;;;;;;;7.00;4.78;;;;;;;7.69;78.97;100752.53;5027821;28;20041;-69
2022/04/24 01:19:24;;;;;;;7.15;5.65;;;;;;;7.63;79.29;100747.81;5028256;28;20079;-69
2022/04/24 01:21:49;;;;;;;6.93;5.32;;;;;;;7.57;79.68;100748.34;5026447;28;20021;-69
2022/04/24 01:24:19;;;;;;;7.95;5.38;;;;;;;7.54;80.31;100752.06;5027081;28;20083;-69
2022/04/24 01:26:45;;;;;;;10.93;5.55;;;;;;;7.56;80.39;100751.94;5021872;28;20052;-69
2022/04/24 01:29:11;;;;;;;8.30;5.50;;;;;;;7.57;80.44;100761.47;5025144;28;20040;-69
2022/04/24 01:31:37;;;;;;;7.57;5.05;;;;;;;7.45;80.71;100746.75;5026225;28;20624;-70
2022/04/24 01:34:03;;;;;;;8.57;5.50;;;;;;;7.46;80.72;100732.69;5026927;28;20045;-69
2022/04/24 01:36:28;;;;;;;12.43;5.53;;;;;;;7.39;80.90;100733.22;5009923;28;20115;-69
2022/04/24 01:38:54;;;;;;;7.43;5.03;;;;;;;7.47;80.82;100750.94;5028097;28;20022;-69
2022/04/24 01:41:19;;;;;;;10.50;5.43;;;;;;;7.37;81.20;100732.50;5021931;28;20043;-69
2022/04/24 01:43:46;;;;;;;8.38;5.30;;;;;;;7.43;81.11;100748.72;5010223;28;20022;-68
2022/04/24 01:46:12;;;;;;;5.88;4.50;;;;;;;7.45;81.12;100754.63;5025044;28;20076;-68
2022/04/24 01:48:38;;;;;;;8.35;5.45;;;;;;;7.39;81.48;100742.88;5027953;28;20037;-68
2022/04/24 01:51:08;;;;;;;8.20;5.57;;;;;;;7.18;81.41;100728.00;5024294;28;20021;-68
2022/04/24 01:53:34;;;;;;;8.82;5.10;;;;;;;7.33;81.90;100749.47;5015951;28;20092;-68
2022/04/24 01:56:04;;;;;;;9.27;5.53;;;;;;;7.29;82.32;100745.47;5024178;28;20072;-69
2022/04/24 01:58:30;;;;;;;8.45;5.32;;;;;;;7.25;82.61;100751.97;5024796;28;20033;-70
2022/04/24 02:00:56;;;;;;;9.63;5.43;;;;;;;7.26;82.85;100756.22;5017291;28;20037;-69
2022/04/24 02:03:23;;;;;;;10.80;6.15;;;;;;;7.25;83.04;100757.22;5028051;28;20026;-68
2022/04/24 02:05:48;;;;;;;7.97;5.35;;;;;;;7.16;83.09;100744.84;5022209;28;20087;-68
2022/04/24 02:08:14;;;;;;;7.25;4.70;;;;;;;7.16;83.15;100752.72;5026738;28;20482;-68
2022/04/24 02:10:40;;;;;;;7.63;5.80;;;;;;;7.20;83.37;100754.94;5027364;28;20033;-68
2022/04/24 02:13:06;;;;;;;7.53;4.93;;;;;;;7.05;83.16;100732.63;5025759;28;20026;-68
2022/04/24 02:15:31;;;;;;;10.02;5.40;;;;;;;7.09;83.70;100746.34;5031188;28;20033;-68
2022/04/24 02:17:57;;;;;;;7.50;4.93;;;;;;;7.11;83.84;100755.72;5027517;28;20037;-69
2022/04/24 02:20:23;;;;;;;7.68;5.03;;;;;;;7.03;84.02;100736.34;5027712;28;20049;-69
2022/04/24 02:22:49;;;;;;;8.05;5.38;;;;;;;6.98;84.06;100734.94;5026135;28;20030;-69
2022/04/24 02:25:15;;;;;;;7.70;4.63;;;;;;;7.03;84.68;100752.09;5030507;28;20103;-69
2022/04/24 02:27:41;;;;;;;7.78;5.60;;;;;;;7.04;84.58;100746.72;5028439;28;20542;-69
2022/04/24 02:30:07;;;;;;;9.40;5.40;;;;;;;7.02;84.89;100747.81;5027695;28;20038;-69
2022/04/24 02:32:32;;;;;;;9.25;5.22;;;;;;;7.02;84.98;100746.03;5028261;28;20037;-69
2022/04/24 02:34:58;;;;;;;9.35;5.15;;;;;;;6.88;84.94;100723.56;5029541;28;20065;-69
2022/04/24 02:37:25;;;;;;;7.63;5.47;;;;;;;6.88;85.00;100739.31;5027376;28;20034;-69
2022/04/24 02:39:50;;;;;;;6.65;5.28;;;;;;;6.85;84.89;100736.94;5012474;28;20619;-69
2022/04/24 02:42:16;;;;;;;7.32;4.90;;;;;;;6.93;84.78;100749.41;5030108;28;20054;-68
2022/04/24 02:44:41;;;;;;;7.85;5.18;;;;;;;6.89;85.25;100748.84;5028929;28;20517;-68
2022/04/24 02:47:07;;;;;;;8.20;5.25;;;;;;;6.87;85.50;100742.88;5029088;28;20033;-68
2022/04/24 02:49:32;;;;;;;6.45;4.75;;;;;;;6.73;84.99;100737.97;5014272;28;20113;-68
2022/04/24 02:51:57;;;;;;;8.27;5.30;;;;;;;6.88;85.06;100755.06;4997667;28;20486;-70
2022/04/24 02:54:23;;;;;;;8.90;4.38;;;;;;;6.89;84.71;100761.13;5027838;28;20067;-70
2022/04/24 02:56:48;;;;;;;8.48;5.30;;;;;;;6.86;84.67;100764.84;5027911;28;20401;-70
2022/04/24 02:59:16;;;;;;;6.43;4.50;;;;;;;6.87;84.98;100756.00;5014816;28;20076;-70
2022/04/24 03:01:41;;;;;;;9.90;4.75;;;;;;;6.83;84.59;100751.97;5025161;28;20037;-70
2022/04/24 03:04:07;;;;;;;8.15;5.07;;;;;;;6.79;85.00;100761.06;5032650;28;20041;-70
2022/04/24 03:06:32;;;;;;;6.70;5.43;;;;;;;6.79;85.89;100761.06;5032883;28;20412;-70
2022/04/24 03:08:57;;;;;;;10.60;5.30;;;;;;;6.77;85.54;100765.59;5033328;28;20033;-70
2022/04/24 03:11:23;;;;;;;8.98;4.82;;;;;;;6.69;85.76;100770.66;5031058;28;20036;-70
2022/04/24 03:13:48;;;;;;;11.40;5.90;;;;;;;6.66;85.99;100761.22;5033136;28;20095;-70
2022/04/24 03:16:14;;;;;;;7.53;5.25;;;;;;;6.71;86.49;100763.50;5031980;28;20355;-68
2022/04/24 03:18:40;;;;;;;9.18;5.20;;;;;;;6.69;86.17;100766.25;5030779;28;20597;-68
2022/04/24 03:21:05;;;;;;;8.77;4.70;;;;;;;6.71;86.33;100764.31;5030076;28;20069;-68
2022/04/24 03:23:31;;;;;;;8.77;4.97;;;;;;;6.63;85.95;100756.25;5029771;28;20601;-70
2022/04/24 03:25:57;;;;;;;7.13;4.57;;;;;;;6.66;85.71;100763.84;5028854;28;20037;-68
2022/04/24 03:28:22;;;;;;;9.73;5.45;;;;;;;6.67;86.39;100762.09;5013400;28;20595;-68
2022/04/24 03:30:47;;;;;;;7.95;5.25;;;;;;;6.63;86.50;100760.66;5020905;28;20124;-68
2022/04/24 03:33:13;;;;;;;7.13;4.65;;;;;;;6.51;86.35;100749.38;5030607;28;20120;-70
2022/04/24 03:35:38;;;;;;;9.77;5.75;;;;;;;6.59;86.39;100765.31;4996596;28;20114;-68
2022/04/24 03:38:04;;;;;;;7.72;4.53;;;;;;;6.48;86.95;100747.03;5029986;28;20059;-68
2022/04/24 03:40:29;;;;;;;9.02;5.22;;;;;;;6.57;86.50;100760.19;5025789;28;20276;-68
2022/04/24 03:42:54;;;;;;;16.98;4.75;;;;;;;6.45;86.65;100737.63;5030472;28;20025;-67
2022/04/24 03:45:20;;;;;;;8.18;4.65;;;;;;;6.55;86.97;100764.75;5028315;28;20057;-67
2022/04/24 03:47:47;;;;;;;8.55;5.13;;;;;;;6.57;87.20;100752.31;5011239;28;20041;-70
2022/04/24 03:50:13;;;;;;;6.40;4.13;;;;;;;6.59;86.91;100754.84;5030629;28;20383;-68
2022/04/24 03:52:39;;;;;;;8.23;5.20;;;;;;;6.58;87.08;100761.88;5027809;28;20047;-69
2022/04/24 03:55:05;;;;;;;8.38;5.22;;;;;;;6.57;87.76;100752.31;5028830;28;20060;-68
2022/04/24 03:57:31;;;;;;;11.10;5.75;;;;;;;6.54;87.37;100747.34;5024051;28;20181;-68
2022/04/24 03:59:56;;;;;;;6.95;5.03;;;;;;;6.49;88.23;100744.28;5029830;28;20535;-68
2022/04/24 04:02:22;;;;;;;7.63;4.63;;;;;;;6.53;87.93;100750.09;5016119;28;20021;-68
2022/04/24 04:04:48;;;;;;;10.40;5.55;;;;;;;6.48;88.29;100755.72;5026476;28;20083;-69
2022/04/24 04:07:13;;;;;;;10.95;5.57;;;;;;;6.45;88.33;100757.78;5023857;28;20524;-69
2022/04/24 04:09:39;;;;;;;8.95;5.03;;;;;;;6.48;89.31;100763.59;5028589;28;20057;-69
2022/04/24 04:12:06;;;;;;;9.32;5.05;;;;;;;6.46;89.26;100748.94;5027943;28;20025;-69
2022/04/24 04:14:31;;;;;;;10.02;5.60;;;;;;;6.50;89.68;100748.56;5011769;28;20037;-69
2022/04/24 04:16:57;;;;;;;9.13;5.72;;;;;;;6.47;89.67;100743.59;5022093;28;20071;-69
2022/04/24 04:19:22;;;;;;;10.93;5.60;;;;;;;6.57;89.25;100754.94;5023826;28;20473;-69
2022/04/24 04:21:48;;;;;;;12.15;6.18;;;;;;;6.47;89.50;100740.97;5025626;28;20037;-69
2022/04/24 04:24:13;;;;;;;11.27;6.43;;;;;;;6.56;90.09;100744.63;5012441;28;20520;-69
2022/04/24 04:26:39;;;;;;;10.57;5.45;;;;;;;6.27;90.18;100712.91;5025614;28;20029;-70
2022/04/24 04:29:04;;;;;;;8.13;5.82;;;;;;;6.66;90.04;100765.66;5024447;28;20033;-69
2022/04/24 04:31:30;;;;;;;9.00;5.55;;;;;;;6.64;90.14;100751.81;5012835;28;20018;-68
2022/04/24 04:33:55;;;;;;;10.50;5.53;;;;;;;6.72;89.95;100771.22;5025914;28;20037;-68
2022/04/24 04:36:20;;;;;;;11.15;7.10;;;;;;;6.70;90.18;100772.31;5026792;28;20040;-68
2022/04/24 04:38:46;;;;;;;10.02;5.60;;;;;;;6.72;90.46;100770.41;5021806;28;20036;-68
2022/04/24 04:41:12;;;;;;;8.95;5.63;;;;;;;6.66;90.11;100765.66;5027203;28;20493;-68
2022/04/24 04:43:37;;;;;;;11.15;6.05;;;;;;;6.80;89.96;100773.22;5017853;28;20041;-67
2022/04/24 04:46:03;;;;;;;10.45;6.18;;;;;;;6.87;90.38;100771.75;5026310;28;20487;-67
2022/04/24 04:48:28;;;;;;;9.75;5.63;;;;;;;6.85;90.22;100778.91;5021316;28;20033;-67
2022/04/24 04:50:54;;;;;;;26.02;6.55;;;;;;;6.94;90.68;100772.88;5020865;28;20041;-67
2022/04/24 04:53:20;;;;;;;8.93;5.93;;;;;;;6.95;90.66;100779.81;5026988;28;20029;-67
2022/04/24 04:55:45;;;;;;;8.65;6.00;;;;;;;6.96;91.27;100776.22;5021602;28;20588;-67
2022/04/24 04:58:11;;;;;;;10.52;5.95;;;;;;;6.97;90.73;100779.69;5023010;28;20025;-68
2022/04/24 05:00:36;;;;;;;11.10;6.43;;;;;;;6.98;91.49;100786.59;5024037;28;20174;-68
2022/04/24 05:03:02;;;;;;;9.65;5.32;;;;;;;6.96;91.14;100784.09;5026093;28;20030;-68
2022/04/24 05:05:27;;;;;;;12.93;6.60;;;;;;;6.97;91.05;100785.78;5011135;28;20034;-68
2022/04/24 05:07:52;;;;;;;16.27;7.38;;;;;;;6.98;91.14;100784.78;5024238;28;20101;-68
2022/04/24 05:10:18;;;;;;;9.95;6.30;;;;;;;7.05;91.15;100792.97;5023647;28;20033;-68
2022/04/24 05:12:44;;;;;;;10.95;5.82;;;;;;;7.08;90.51;100786.66;5023381;28;20037;-69
2022/04/24 05:15:14;;;;;;;10.75;6.22;;;;;;;7.13;90.26;100794.97;5023420;28;20245;-69
2022/04/24 05:17:41;;;;;;;9.80;5.65;;;;;;;7.20;89.66;100791.69;5017888;28;20033;-69
2022/04/24 05:20:09;;;;;;;8.60;5.85;;;;;;;7.20;89.62;100794.31;5023035;28;20045;-69
2022/04/24 05:22:34;;;;;;;22.15;6.90;;;;;;;7.24;88.97;100791.44;5026400;28;20037;-69
2022/04/24 05:25:00;;;;;;;9.68;5.57;;;;;;;7.25;88.72;100788.72;5025422;28;20049;-69
2022/04/24 05:27:26;;;;;;;7.00;5.00;;;;;;;7.19;88.27;100773.47;5021269;28;20036;-69
2022/04/24 05:29:52;;;;;;;8.30;5.40;;;;;;;7.28;88.10;100793.69;5018555;28;20033;-69
2022/04/24 05:32:17;;;;;;;11.48;6.03;;;;;;;7.31;88.07;100795.22;5026029;28;20037;-69
2022/04/24 05:34:43;;;;;;;9.98;5.57;;;;;;;7.27;87.74;100786.75;5025567;28;20036;-69
2022/04/24 05:37:09;;;;;;;8.82;4.63;;;;;;;7.39;87.64;100790.97;5025424;28;20037;-69
2022/04/24 05:39:35;;;;;;;8.27;4.55;;;;;;;7.46;87.40;100795.72;5023911;28;20037;-69
2022/04/24 05:42:01;;;;;;;11.35;5.85;;;;;;;7.34;86.81;100780.03;5026269;28;20025;-68
2022/04/24 05:44:27;;;;;;;8.32;5.15;;;;;;;7.47;86.68;100799.97;5026189;28;20041;-68
2022/04/24 05:46:52;;;;;;;10.02;4.82;;;;;;;7.45;86.95;100788.78;5024477;28;20029;-68
2022/04/24 05:49:18;;;;;;;7.82;4.60;;;;;;;7.55;85.93;100801.00;5023944;28;20056;-69
2022/04/24 05:51:44;;;;;;;9.02;3.45;;;;;;;7.59;85.51;100812.91;5025944;28;20033;-69
2022/04/24 05:54:10;;;;;;;10.40;4.15;;;;;;;7.60;85.54;100811.97;5025719;28;20013;-69
2022/04/24 05:56:36;;;;;;;8.43;3.88;;;;;;;7.59;85.56;100807.66;5024854;28;20030;-69
2022/04/24 05:59:03;;;;;;;7.60;3.90;;;;;;;7.71;84.43;100811.03;5016747;28;20072;-69
2022/04/24 06:01:28;;;;;;;6.20;3.33;;;;;;;7.85;84.15;100816.88;5024501;28;20805;-69
2022/04/24 06:03:54;;;;;;;6.05;3.85;;;;;;;7.86;84.02;100805.41;5025862;28;20103;-69
2022/04/24 06:06:19;;;;;;;6.25;3.13;;;;;;;7.95;83.57;100818.59;5024969;28;20033;-69
2022/04/24 06:08:44;;;;;;;5.32;2.67;;;;;;;7.95;82.95;100817.75;5024167;28;20026;-69
2022/04/24 06:11:10;;;;;;;5.65;2.72;;;;;;;8.06;82.80;100820.28;5023907;28;20076;-69
2022/04/24 06:13:35;;;;;;;5.55;2.75;;;;;;;7.96;81.82;100808.91;5025917;28;20037;-69
2022/04/24 06:16:01;;;;;;;3.75;2.25;;;;;;;8.22;81.62;100820.56;5025780;28;20036;-70
2022/04/24 06:18:27;;;;;;;4.70;2.65;;;;;;;8.29;80.53;100812.97;5024902;28;20052;-69
2022/04/24 06:20:53;;;;;;;6.70;2.70;;;;;;;8.46;80.61;100815.94;5023815;28;20156;-70
2022/04/24 06:23:18;;;;;;;5.53;3.03;;;;;;;8.42;80.14;100795.16;5025846;28;20566;-69
2022/04/24 06:25:44;;;;;;;4.40;2.15;;;;;;;8.49;79.83;100803.34;5025386;28;20053;-70
2022/04/24 06:28:10;;;;;;;6.22;2.83;;;;;;;8.67;79.79;100815.81;5017006;28;20037;-69
2022/04/24 06:30:40;;;;;;;5.57;2.80;;;;;;;8.71;80.06;100825.94;5023441;28;20052;-70
2022/04/24 06:33:10;;;;;;;4.13;2.30;;;;;;;8.81;79.93;100810.13;5023847;28;20171;-69
2022/04/24 06:35:35;;;;;;;5.45;2.67;;;;;;;8.97;78.84;100823.56;5026117;28;20029;-69
2022/04/24 06:38:02;;;;;;;6.68;2.97;;;;;;;9.05;78.26;100813.16;5022624;28;20032;-68
2022/04/24 06:40:27;;;;;;;3.25;2.30;;;;;;;9.28;78.03;100828.66;5021893;28;20036;-68
2022/04/24 06:43:04;;;;;;;8.05;2.45;;;;;;;9.30;76.55;100804.78;5019574;28;20029;-70
2022/04/24 06:45:40;;;;;;;7.40;2.70;;;;;;;9.37;76.33;100817.25;5024861;28;20021;-70
2022/04/24 06:48:13;;;;;;;3.30;1.88;;;;;;;9.51;76.03;100823.03;5016305;28;20029;-69
2022/04/24 06:50:41;;;;;;;3.65;1.92;;;;;;;9.55;76.06;100829.69;5022363;28;20124;-69
2022/04/24 06:53:14;;;;;;;4.85;2.65;;;;;;;9.88;75.53;100825.66;5024950;28;20460;-69
2022/04/24 06:55:42;;;;;;;6.32;2.55;;;;;;;10.31;73.67;100824.22;5022334;28;20512;-68
2022/04/24 06:58:09;;;;;;;4.38;2.17;;;;;;;11.03;71.99;100821.56;5023285;28;20027;-68
2022/04/24 07:00:37;;;;;;;7.20;2.60;;;;;;;11.22;69.13;100828.47;5028255;28;20071;-69
2022/04/24 07:03:18;;;;;;;3.88;2.25;;;;;;;11.49;68.45;100815.09;5027932;28;20080;-70
2022/04/24 07:05:44;;;;;;;4.82;2.35;;;;;;;12.00;65.99;100843.44;5027333;28;20021;-69
2022/04/24 07:08:10;;;;;;;3.95;2.00;;;;;;;11.74;66.81;100825.81;5027419;28;20029;-68
2022/04/24 07:10:35;;;;;;;3.75;2.33;;;;;;;12.31;65.70;100812.81;5027403;28;20688;-69
2022/04/24 07:13:03;;;;;;;3.90;2.28;;;;;;;12.61;65.34;100823.78;5028767;28;20032;-68
2022/04/24 07:15:31;;;;;;;4.25;2.15;;;;;;;12.94;64.01;100823.81;5027476;28;20492;-70
2022/04/24 07:17:56;;;;;;;4.20;2.65;;;;;;;12.91;64.35;100826.75;5026624;28;20026;-69
2022/04/24 07:20:22;;;;;;;3.45;2.10;;;;;;;13.44;62.99;100833.38;5026926;28;20052;-70
2022/04/24 07:22:50;;;;;;;7.07;2.40;;;;;;;13.73;61.54;100829.31;5027584;28;20040;-70
2022/04/24 07:25:21;;;;;;;3.58;2.17;;;;;;;14.14;61.00;100837.13;5028303;28;20053;-70
2022/04/24 07:27:47;;;;;;;3.97;2.30;;;;;;;14.02;61.63;100834.00;5025628;28;20071;-70
2022/04/24 07:30:15;;;;;;;7.55;2.40;;;;;;;14.50;59.23;100836.56;5026935;28;20033;-70
2022/04/24 07:32:45;;;;;;;5.75;2.33;;;;;;;14.65;59.02;100834.84;5027374;28;20371;-70
2022/04/24 07:35:14;;;;;;;9.85;3.22;;;;;;;13.91;60.04;100819.28;5026645;28;20049;-70
2022/04/24 07:37:40;;;;;;;3.55;2.35;;;;;;;14.45;58.80;100820.34;5025518;28;20494;-70
2022/04/24 07:40:10;;;;;;;5.90;2.25;;;;;;;13.91;59.79;100832.56;5026531;28;20036;-70
2022/04/24 07:42:49;;;;;;;5.25;2.30;;;;;;;14.60;58.54;100835.38;5025756;28;20072;-70
2022/04/24 07:45:26;;;;;;;8.02;2.83;;;;;;;15.10;57.67;100817.19;5027432;28;20044;-70
2022/04/24 07:47:53;;;;;;;5.45;2.30;;;;;;;16.14;55.57;100830.53;5024014;28;20734;-70
2022/04/24 07:50:21;;;;;;;5.65;2.45;;;;;;;16.03;54.13;100810.53;5026836;28;20490;-70
2022/04/24 07:52:47;;;;;;;4.63;2.78;;;;;;;16.68;53.94;100829.28;5022256;28;20026;-71
2022/04/24 07:55:17;;;;;;;4.68;2.50;;;;;;;16.60;53.63;100806.22;5027286;28;20584;-70
2022/04/24 07:57:43;;;;;;;7.68;2.72;;;;;;;16.86;54.25;100823.50;5018619;28;20049;-70
2022/04/24 08:00:09;;;;;;;3.90;2.63;;;;;;;16.94;52.74;100825.19;5026144;28;20048;-70
2022/04/24 08:02:48;;;;;;;6.38;2.63;;;;;;;16.63;54.20;100819.16;5025741;28;20068;-70
2022/04/24 08:05:20;;;;;;;4.15;2.53;;;;;;;17.35;53.23;100832.50;5023038;28;20503;-71
2022/04/24 08:07:46;;;;;;;5.55;2.85;;;;;;;17.79;50.82;100829.47;5023992;28;20045;-70
2022/04/24 08:10:11;;;;;;;4.80;2.70;;;;;;;17.26;51.84;100829.16;5026118;28;20021;-71
2022/04/24 08:12:37;;;;;;;5.53;3.00;;;;;;;16.78;51.89;100829.75;5025697;28;20505;-70
2022/04/24 08:15:02;;;;;;;3.58;2.47;;;;;;;16.67;51.97;100824.94;5021814;28;20036;-70
2022/04/24 08:17:28;;;;;;;5.85;3.03;;;;;;;17.67;50.30;100834.53;5021855;28;20033;-70
2022/04/24 08:19:53;;;;;;;5.97;2.80;;;;;;;16.72;50.87;100830.50;5028515;28;20040;-70
2022/04/24 08:22:18;;;;;;;4.28;2.30;;;;;;;17.61;50.09;100831.84;5027908;28;20601;-70
2022/04/24 08:24:44;;;;;;;4.70;2.38;;;;;;;17.69;48.81;100831.69;5027111;28;20191;-70
2022/04/24 08:27:09;;;;;;;5.80;2.78;;;;;;;18.39;49.86;100840.41;5025012;28;20064;-71
2022/04/24 08:29:34;;;;;;;5.15;2.42;;;;;;;19.00;47.46;100841.34;5027620;28;20052;-70
2022/04/24 08:32:00;;;;;;;4.18;2.50;;;;;;;19.06;46.58;100837.84;5020306;28;20702;-70
2022/04/24 08:34:25;;;;;;;7.07;3.17;;;;;;;19.01;47.45;100843.81;5027315;28;20527;-70
2022/04/24 08:36:50;;;;;;;5.07;2.53;;;;;;;19.65;45.88;100847.66;5023670;28;20036;-70
2022/04/24 08:39:16;;;;;;;4.25;2.63;;;;;;;18.56;48.76;100840.06;5023700;28;20473;-70
2022/04/24 08:41:42;;;;;;;4.55;2.53;;;;;;;19.49;47.38;100832.88;5023750;28;20609;-69
2022/04/24 08:44:10;;;;;;;5.05;2.85;;;;;;;19.42;46.77;100837.38;5027770;28;20033;-70
2022/04/24 08:46:36;;;;;;;8.02;2.80;;;;;;;19.41;46.42;100842.97;5027506;28;20025;-70
2022/04/24 08:49:03;;;;;;;4.43;2.20;;;;;;;19.93;45.40;100841.22;5019645;28;20493;-69
2022/04/24 08:51:29;;;;;;;3.83;2.58;;;;;;;19.75;46.16;100855.28;5021941;28;20037;-70
2022/04/24 08:53:56;;;;;;;4.55;2.13;;;;;;;19.38;45.56;100851.41;5023691;28;20080;-69
2022/04/24 08:56:22;;;;;;;5.15;2.38;;;;;;;17.73;47.48;100854.28;5024559;28;20129;-69
2022/04/24 08:58:47;;;;;;;4.40;2.10;;;;;;;18.64;47.81;100838.00;5023633;28;20112;-70
2022/04/24 09:01:12;;;;;;;4.05;2.53;;;;;;;19.02;46.74;100841.97;5018281;28;20041;-69
2022/04/24 09:03:38;;;;;;;6.40;2.20;;;;;;;19.15;46.11;100839.28;5021743;28;20060;-69
2022/04/24 09:06:03;;;;;;;8.95;2.20;;;;;;;19.52;45.25;100836.97;5027348;28;20044;-70
2022/04/24 09:08:30;;;;;;;5.68;1.73;;;;;;;19.83;44.62;100846.19;5025516;28;20025;-69
2022/04/24 09:10:59;;;;;;;5.60;2.20;;;;;;;19.18;46.46;100843.41;5022611;28;20033;-69
2022/04/24 09:16:34;;;;;;;3.05;1.63;;;;;;;20.89;44.23;100834.91;5028450;28;20047;-70
2022/04/24 09:19:00;;;;;;;3.25;1.80;;;;;;;21.43;43.58;100840.66;5042489;28;20417;-69
2022/04/24 09:21:25;;;;;;;3.10;1.80;;;;;;;21.04;43.73;100839.13;5020793;28;20026;-70
2022/04/24 09:23:50;;;;;;;4.97;2.20;;;;;;;21.07;43.74;100839.50;5025625;28;20053;-69
2022/04/24 09:26:16;;;;;;;3.33;1.88;;;;;;;21.26;43.37;100828.81;5024446;28;20534;-69
2022/04/24 09:28:42;;;;;;;5.20;2.13;;;;;;;21.26;42.71;100842.25;5026120;28;20456;-69
2022/04/24 09:31:08;;;;;;;4.43;1.90;;;;;;;20.90;43.21;100835.72;5025565;28;20029;-69
2022/04/24 09:33:39;;;;;;;4.95;2.15;;;;;;;20.77;44.08;100831.28;5025263;28;20594;-69
2022/04/24 09:36:05;;;;;;;4.82;1.98;;;;;;;21.23;42.79;100838.16;5011932;28;20044;-69
2022/04/24 09:38:30;;;;;;;3.25;2.03;;;;;;;20.82;44.62;100839.50;5026308;28;20029;-69
2022/04/24 09:40:55;;;;;;;4.18;2.00;;;;;;;20.42;45.31;100849.63;5029368;28;20044;-69
2022/04/24 09:43:21;;;;;;;4.65;2.30;;;;;;;20.47;44.24;100853.31;5027809;28;20807;-69
2022/04/24 09:45:53;;;;;;;6.28;2.47;;;;;;;20.28;45.35;100830.13;5028483;28;20516;-69
2022/04/24 09:48:20;;;;;;;4.47;2.50;;;;;;;20.26;44.61;100845.59;5023260;28;20045;-69
2022/04/24 09:50:48;;;;;;;4.35;2.28;;;;;;;20.67;44.16;100836.31;5026743;28;20022;-69
2022/04/24 09:53:16;;;;;;;4.38;2.05;;;;;;;20.60;44.18;100830.16;5024978;28;20461;-70
2022/04/24 09:55:43;;;;;;;3.80;2.25;;;;;;;20.64;44.21;100842.09;5023396;28;20053;-69
2022/04/24 09:58:09;;;;;;;4.57;2.00;;;;;;;21.20;43.73;100849.31;5027171;28;20041;-69
2022/04/24 10:00:35;;;;;;;4.70;2.33;;;;;;;21.27;42.55;100850.06;5027234;28;20039;-69
2022/04/24 10:03:02;;;;;;;4.05;2.00;;;;;;;21.43;43.13;100834.47;5028386;28;20037;-69
2022/04/24 10:05:29;;;;;;;3.97;1.67;;;;;;;21.32;42.73;100828.75;5028679;28;20107;-69
2022/04/24 10:07:56;;;;;;;3.40;2.10;;;;;;;21.09;43.27;100842.78;5030051;28;20157;-69
2022/04/24 10:10:21;;;;;;;4.18;1.77;;;;;;;21.37;42.59;100839.63;5026824;28;20086;-69
2022/04/24 10:12:49;;;;;;;6.22;1.88;;;;;;;20.79;42.50;100841.78;5025412;28;20108;-69
2022/04/24 10:15:17;;;;;;;5.53;2.35;;;;;;;21.56;42.88;100837.03;5017306;28;20456;-69
2022/04/24 10:17:54;;;;;;;3.30;1.70;;;;;;;21.62;42.89;100844.16;5025013;28;20553;-69
2022/04/24 10:20:50;;;;;;;3.58;2.30;;;;;;;21.91;43.59;100853.34;5024349;28;20037;-69
2022/04/24 10:23:27;;;;;;;4.57;2.40;;;;;;;21.62;42.82;100840.66;5023764;28;20052;-70
2022/04/24 10:25:52;;;;;;;10.88;4.43;;;;;;;22.54;42.85;100837.88;5025340;28;20046;-68
2022/04/24 10:28:20;;;;;;;4.78;1.95;;;;;;;22.50;41.32;100850.16;5023123;28;20079;-69
2022/04/24 10:31:00;;;;;;;2.67;2.05;;;;;;;21.16;42.85;100845.41;5026856;28;20033;-69
2022/04/24 10:33:28;;;;;;;4.70;2.30;;;;;;;22.21;43.32;100843.66;5025371;28;20021;-70
2022/04/24 10:36:02;;;;;;;3.30;2.10;;;;;;;22.64;41.87;100853.44;5030819;28;20029;-68
2022/04/24 10:38:29;;;;;;;5.28;2.25;;;;;;;22.74;41.40;100845.66;5028654;28;20032;-69
2022/04/24 10:41:00;;;;;;;3.83;2.10;;;;;;;22.13;42.61;100861.75;5030284;28;20162;-69
2022/04/24 10:43:33;;;;;;;5.50;2.92;;;;;;;21.16;43.33;100840.88;5030089;28;20029;-69
2022/04/24 10:46:00;;;;;;;3.13;2.08;;;;;;;21.62;43.39;100846.84;5030829;28;20068;-69
2022/04/24 10:48:33;;;;;;;5.22;2.28;;;;;;;21.00;43.74;100848.66;5021363;28;20505;-69
2022/04/24 10:50:59;;;;;;;7.32;2.17;;;;;;;21.32;43.13;100844.88;5028446;28;20052;-69
2022/04/24 10:53:25;;;;;;;5.43;2.15;;;;;;;21.27;44.69;100835.81;5029885;28;20025;-69
2022/04/24 10:55:50;;;;;;;5.60;2.20;;;;;;;21.21;43.76;100848.28;5006707;28;20331;-69
2022/04/24 10:58:27;;;;;;;4.93;2.50;;;;;;;21.40;42.81;100848.28;5028520;28;20033;-69
2022/04/24 11:00:52;;;;;;;5.32;2.25;;;;;;;21.11;44.64;100832.66;5030374;28;20095;-69
2022/04/24 11:03:19;;;;;;;5.53;2.70;;;;;;;21.81;43.63;100853.06;5005079;28;20486;-69
2022/04/24 11:05:47;;;;;;;5.13;2.47;;;;;;;21.45;45.10;100848.47;5030647;28;20041;-69
2022/04/24 11:08:20;;;;;;;5.70;2.75;;;;;;;21.33;44.27;100830.38;5027777;28;20033;-69
2022/04/24 11:10:47;;;;;;;4.38;2.40;;;;;;;22.95;42.49;100855.03;5031910;28;20032;-69
2022/04/24 11:13:16;;;;;;;4.25;2.60;;;;;;;21.57;43.53;100852.06;5030628;28;20029;-70
2022/04/24 11:15:44;;;;;;;4.65;2.65;;;;;;;21.72;45.04;100852.53;5027800;28;20144;-69
2022/04/24 11:18:27;;;;;;;6.47;2.83;;;;;;;20.53;45.32;100852.47;5022571;28;20029;-69
2022/04/24 11:20:58;;;;;;;4.97;2.50;;;;;;;21.12;46.13;100844.19;5028477;28;20506;-69
2022/04/24 11:23:35;;;;;;;9.57;2.40;;;;;;;21.75;43.79;100849.41;5026792;28;20033;-69
2022/04/24 11:26:02;;;;;;;3.78;2.67;;;;;;;20.88;46.22;100844.00;5029585;28;20037;-69
2022/04/24 11:28:35;;;;;;;4.70;2.78;;;;;;;21.01;44.98;100839.56;5024127;28;20043;-69
2022/04/24 11:31:13;;;;;;;6.57;2.85;;;;;;;21.28;44.06;100849.03;5030402;28;20902;-69